Alba, Pennsylvania
Current Conditions -  °F | °C
As of 12:15 PM on Saturday 25 Oct 2014 (Local Time) from KN38 Reporting Station
Scattered Clouds Scattered Clouds  
Wind Chill: 15°   Ceiling: Unl
Heat Index: 15°   Visibility: 10mi
Dew Point:   Wind: 15mph
Humidity: 59%   Direction: 230°SW
Pressure: 29.8"   Gusts: 23mph
Location:  41.71°N, 76.83°W
Report Text: KN38 251615Z AUTO 23013G20KT 10SM SCT034 15/07 A2980 RMK AO2
Loading
Personal Weather Stations






























Interactive Weather Map
Tropical Storm Tracking
New forecast layout! Learn more

10-Day Weather Forecast

Advertisements
Track Severe Weather on mobile